Terminal Aerodrome Forecast
Issued by NWS Salt Lake City, UT

Home | Current Version | Previous Version | Text Only | Print | Product List | Glossary On
Versions: 1 2 3 4 5 6 7 8 9 10 11 12 13 14 15 16 17 18 19 20 21 22 23 24 25 26
000
FTUS45 KSLC 202005 AAA
TAFCDC
TAF AMD
KCDC 202005Z 2020/2118 15008KT P6SM VCTS SCT080CB BKN100
      TEMPO 2020/2024 VRB15G30KT -TSRA BKN080CB
     FM210000 18006KT P6SM VCTS OVC040CB
     FM210500 VRB03KT P6SM VCSH OVC060=

USA.gov is the U.S. government's official web portal to all federal, state and local government web resources and services.